Time;durP1;ratioP1;P1;durP2;ratioP2;P2;SDS_P1;SDS_P2;PMS_P1;PMS_P2;Temp;Humidity;BMP_temperature;BMP_pressure;BME280_temperature;BME280_humidity;BME280_pressure;Samples;Min_cycle;Max_cycle;Signal;HPM_P1;HPM_P2
2022/04/22 00:01:20;;;;;;;8.00;6.70;;;6.50;99.90;;;;;;5031095;28;21013;-70
2022/04/22 00:03:46;;;;;;;9.67;7.73;;;6.50;99.90;;;;;;5031140;28;20452;-70
2022/04/22 00:06:12;;;;;;;8.60;7.03;;;6.50;99.90;;;;;;5013420;28;20191;-70
2022/04/22 00:08:38;;;;;;;8.50;7.67;;;6.50;99.90;;;;;;5030996;28;20447;-70
2022/04/22 00:13:48;;;;;;;9.67;7.10;;;6.40;99.90;;;;;;5030944;28;20219;-70
2022/04/22 00:16:14;;;;;;;8.13;6.80;;;6.30;99.90;;;;;;5030934;28;20430;-70
2022/04/22 00:18:40;;;;;;;10.00;6.70;;;6.30;99.90;;;;;;5013110;28;20197;-70
2022/04/22 00:21:06;;;;;;;8.43;6.83;;;6.20;99.90;;;;;;5011792;28;20212;-70
2022/04/22 00:23:32;;;;;;;7.60;6.60;;;6.40;99.90;;;;;;5030792;28;20180;-71
2022/04/22 00:25:58;;;;;;;8.77;6.73;;;6.20;99.90;;;;;;5030677;28;20447;-70
2022/04/22 00:28:24;;;;;;;8.70;6.93;;;6.20;99.90;;;;;;5030490;28;20201;-71
2022/04/22 00:30:50;;;;;;;11.37;7.90;;;6.10;99.90;;;;;;5030829;28;20235;-71
2022/04/22 00:33:17;;;;;;;9.10;7.67;;;6.00;99.90;;;;;;5030485;28;20475;-71
2022/04/22 00:35:44;;;;;;;9.50;8.00;;;6.00;99.90;;;;;;5030656;28;20506;-70
2022/04/22 00:38:10;;;;;;;10.50;7.67;;;6.00;99.90;;;;;;5030433;28;20435;-70
2022/04/22 00:40:36;;;;;;;7.67;6.77;;;6.00;99.90;;;;;;5012519;28;20542;-70
2022/04/22 00:43:24;;;;;;;7.87;7.07;;;6.00;99.90;;;;;;5030395;28;20584;-70
2022/04/22 00:45:51;;;;;;;9.30;6.83;;;5.90;99.90;;;;;;5012283;28;20430;-71
2022/04/22 00:48:18;;;;;;;9.23;7.00;;;5.90;99.90;;;;;;5030149;28;21039;-70
2022/04/22 00:50:45;;;;;;;8.33;7.30;;;5.90;99.90;;;;;;5030224;28;20427;-69
2022/04/22 00:53:11;;;;;;;8.83;7.30;;;5.90;99.90;;;;;;5030067;28;20826;-69
2022/04/22 00:55:40;;;;;;;9.77;7.90;;;5.90;99.90;;;;;;5030068;28;20430;-69
2022/04/22 00:58:07;;;;;;;8.17;7.30;;;6.00;99.90;;;;;;5029928;28;20963;-70
2022/04/22 01:00:33;;;;;;;13.07;7.37;;;6.10;99.90;;;;;;5029958;28;20506;-70
2022/04/22 01:02:59;;;;;;;9.20;7.23;;;6.20;99.90;;;;;;5029982;28;20423;-69
2022/04/22 01:10:59;;;;;;;8.07;7.20;;;6.10;99.90;;;;;;5029783;28;20473;-69
2022/04/22 01:13:25;;;;;;;8.53;6.90;;;6.00;99.90;;;;;;5029797;28;21066;-69
2022/04/22 01:15:51;;;;;;;9.67;7.83;;;5.90;99.90;;;;;;5029792;28;20416;-69
2022/04/22 01:18:18;;;;;;;11.10;8.23;;;5.70;99.90;;;;;;5011745;28;20443;-69
2022/04/22 01:20:43;;;;;;;8.77;7.33;;;5.60;99.90;;;;;;5029644;28;20649;-69
2022/04/22 01:23:09;;;;;;;10.27;8.43;;;5.60;99.90;;;;;;5029640;28;20485;-69
2022/04/22 01:25:35;;;;;;;17.00;9.47;;;5.40;99.90;;;;;;5029421;28;20204;-69
2022/04/22 01:28:01;;;;;;;8.73;7.83;;;5.40;99.90;;;;;;5029546;28;20508;-69
2022/04/22 01:30:27;;;;;;;9.00;7.70;;;5.40;99.90;;;;;;5029485;28;20646;-69
2022/04/22 01:32:54;;;;;;;9.43;8.13;;;5.40;99.90;;;;;;5029027;28;20498;-69
2022/04/22 01:35:20;;;;;;;9.67;7.80;;;5.40;99.90;;;;;;5011361;28;20553;-69
2022/04/22 01:37:47;;;;;;;10.53;8.23;;;5.40;99.90;;;;;;5029363;28;20443;-71
2022/04/22 01:40:14;;;;;;;19.90;8.37;;;5.30;99.90;;;;;;5011275;28;20785;-70
2022/04/22 01:42:40;;;;;;;11.67;8.47;;;5.30;99.90;;;;;;5029356;28;20462;-69
2022/04/22 01:45:07;;;;;;;8.70;7.80;;;5.20;99.90;;;;;;5029289;28;20415;-69
2022/04/22 01:47:33;;;;;;;8.13;6.97;;;5.10;99.90;;;;;;5029124;28;20439;-69
2022/04/22 01:49:59;;;;;;;9.20;8.20;;;5.20;99.90;;;;;;5029081;28;20792;-69
2022/04/22 01:52:25;;;;;;;9.60;8.10;;;5.20;99.90;;;;;;5029325;28;20853;-69
2022/04/22 01:54:52;;;;;;;8.83;7.50;;;5.10;99.90;;;;;;5029052;28;20509;-69
2022/04/22 01:57:18;;;;;;;12.20;7.77;;;5.10;99.90;;;;;;5011301;28;20604;-69
2022/04/22 01:59:46;;;;;;;10.93;7.87;;;4.90;99.90;;;;;;5029060;28;20619;-69
2022/04/22 02:02:12;;;;;;;8.87;7.40;;;4.80;99.90;;;;;;5028968;28;20789;-69
2022/04/22 02:04:38;;;;;;;9.67;8.33;;;4.80;99.90;;;;;;5029035;28;20423;-70
2022/04/22 02:07:04;;;;;;;10.70;7.53;;;4.80;99.90;;;;;;5028891;28;20454;-70
2022/04/22 02:09:29;;;;;;;9.70;7.67;;;4.80;99.90;;;;;;5029031;28;20194;-70
2022/04/22 02:11:56;;;;;;;9.37;7.57;;;4.90;99.90;;;;;;5011975;28;20434;-70
2022/04/22 02:14:22;;;;;;;15.00;8.40;;;4.80;99.90;;;;;;5030412;28;20213;-70
2022/04/22 02:16:48;;;;;;;12.93;8.13;;;4.50;99.90;;;;;;5028857;28;20471;-70
2022/04/22 02:19:14;;;;;;;12.70;9.33;;;4.50;99.90;;;;;;5028961;28;20529;-69
2022/04/22 02:21:40;;;;;;;12.07;8.53;;;4.30;99.90;;;;;;5028956;28;20282;-69
2022/04/22 02:24:06;;;;;;;11.10;8.73;;;4.30;99.90;;;;;;5028644;28;20521;-70
2022/04/22 02:28:31;;;;;;;11.00;9.37;;;4.30;99.90;;;;;;5028629;28;20184;-69
2022/04/22 02:29:18;;;;;;;11.00;8.87;;;4.20;99.90;;;;;;5013219;28;20496;-69
2022/04/22 02:31:44;;;;;;;9.97;8.83;;;4.10;99.90;;;;;;5028545;28;20549;-69
2022/04/22 02:34:09;;;;;;;14.27;10.30;;;4.20;99.90;;;;;;5028769;28;20970;-69
2022/04/22 02:36:35;;;;;;;12.13;9.60;;;4.20;99.90;;;;;;5010888;28;20257;-69
2022/04/22 02:39:00;;;;;;;10.77;8.67;;;4.30;99.90;;;;;;4994595;28;20206;-69
2022/04/22 02:46:54;;;;;;;9.30;8.30;;;4.50;99.90;;;;;;5017931;28;20977;-69
2022/04/22 02:49:20;;;;;;;9.73;7.70;;;4.50;99.90;;;;;;5033241;28;20506;-69
2022/04/22 02:51:45;;;;;;;9.20;7.97;;;4.50;99.90;;;;;;5033002;28;20699;-69
2022/04/22 02:54:11;;;;;;;10.40;7.77;;;4.40;99.90;;;;;;5032795;28;20212;-68
2022/04/22 02:56:38;;;;;;;12.37;8.60;;;4.50;99.90;;;;;;5014988;28;20751;-68
2022/04/22 02:59:04;;;;;;;11.57;8.60;;;4.50;99.90;;;;;;5032668;28;20717;-69
2022/04/22 03:01:30;;;;;;;12.27;8.97;;;4.50;99.90;;;;;;5032519;28;20418;-69
2022/04/22 03:03:56;;;;;;;11.33;8.73;;;4.50;99.90;;;;;;5032348;28;20910;-68
2022/04/22 03:06:24;;;;;;;10.77;9.03;;;4.40;99.90;;;;;;5014620;28;20219;-69
2022/04/22 03:08:50;;;;;;;14.33;9.30;;;4.40;99.90;;;;;;5014893;28;20692;-69
2022/04/22 03:11:21;;;;;;;9.67;8.67;;;4.50;99.90;;;;;;5032064;28;20427;-69
2022/04/22 03:13:56;;;;;;;10.70;9.27;;;4.40;99.90;;;;;;5032057;28;20216;-68
2022/04/22 03:16:26;;;;;;;9.07;7.90;;;4.40;99.90;;;;;;5031994;28;20411;-69
2022/04/22 03:18:52;;;;;;;8.80;7.70;;;4.40;99.90;;;;;;5032177;28;20924;-69
2022/04/22 03:21:18;;;;;;;9.53;8.07;;;4.30;99.90;;;;;;5031980;28;20414;-68
2022/04/22 03:23:44;;;;;;;8.97;8.07;;;4.30;99.90;;;;;;5031958;28;20488;-68
2022/04/22 03:26:10;;;;;;;11.83;9.20;;;4.30;99.90;;;;;;5031657;28;20493;-69
2022/04/22 03:28:35;;;;;;;23.43;9.10;;;4.20;99.90;;;;;;5031799;28;20255;-68
2022/04/22 03:31:01;;;;;;;12.80;8.93;;;4.00;99.90;;;;;;5031753;28;20190;-70
2022/04/22 03:33:27;;;;;;;14.90;10.93;;;3.80;99.90;;;;;;5013702;28;20281;-71
2022/04/22 03:35:53;;;;;;;26.77;16.13;;;3.70;99.90;;;;;;5031770;28;20431;-71
2022/04/22 03:38:20;;;;;;;19.87;12.13;;;3.60;99.90;;;;;;5031579;28;20216;-71
2022/04/22 03:40:49;;;;;;;24.30;13.27;;;3.70;99.90;;;;;;5031591;28;20173;-69
2022/04/22 03:43:16;;;;;;;17.10;11.93;;;3.80;99.90;;;;;;5031589;28;20506;-69
2022/04/22 03:45:42;;;;;;;13.18;11.25;;;3.90;99.90;;;;;;5031618;28;20446;-69
2022/04/22 03:48:08;;;;;;;15.37;11.50;;;3.90;99.90;;;;;;5031536;28;20257;-69
2022/04/22 03:50:36;;;;;;;14.38;10.50;;;4.10;99.90;;;;;;5031545;28;20434;-70
2022/04/22 03:53:05;;;;;;;15.73;10.15;;;4.00;99.90;;;;;;5015777;28;20205;-69
2022/04/22 03:55:32;;;;;;;16.17;9.60;;;4.10;99.90;;;;;;5035925;28;20194;-70
2022/04/22 03:58:12;;;;;;;13.60;10.70;;;4.10;99.90;;;;;;5015953;28;20993;-68
2022/04/22 04:00:41;;;;;;;15.50;10.83;;;4.10;99.90;;;;;;5032851;28;21258;-69
2022/04/22 04:03:11;;;;;;;12.97;10.20;;;4.00;99.90;;;;;;5032713;28;20786;-69
2022/04/22 04:05:38;;;;;;;13.47;9.90;;;4.10;99.90;;;;;;5015964;28;20889;-68
2022/04/22 04:08:05;;;;;;;13.63;9.30;;;4.10;99.90;;;;;;5032788;28;20800;-71
2022/04/22 04:16:00;;;;;;;12.77;9.52;;;4.00;99.90;;;;;;5031246;28;20788;-71
2022/04/22 04:18:34;;;;;;;13.33;10.10;;;3.70;99.90;;;;;;5030706;28;20699;-71
2022/04/22 04:23:48;;;;;;;13.57;10.30;;;3.80;99.90;;;;;;5029722;28;20434;-71
2022/04/22 04:26:15;;;;;;;12.27;9.30;;;3.80;99.90;;;;;;5030022;28;20442;-72
2022/04/22 04:28:42;;;;;;;14.50;10.82;;;3.90;99.90;;;;;;5012236;28;20803;-71
2022/04/22 04:31:08;;;;;;;16.40;11.05;;;3.80;99.90;;;;;;5029986;28;20199;-71
2022/04/22 04:33:37;;;;;;;13.33;9.87;;;3.90;99.90;;;;;;5030257;28;20241;-71
2022/04/22 04:36:04;;;;;;;14.00;10.17;;;3.90;99.90;;;;;;5030266;28;20412;-72
2022/04/22 04:38:29;;;;;;;16.70;10.93;;;4.00;99.90;;;;;;5030129;28;20447;-71
2022/04/22 04:40:55;;;;;;;14.20;11.23;;;4.00;99.90;;;;;;5029659;28;20422;-71
2022/04/22 04:43:21;;;;;;;15.27;11.37;;;3.90;99.90;;;;;;5029927;28;20426;-71
2022/04/22 04:45:49;;;;;;;15.57;11.15;;;3.80;99.90;;;;;;5029940;28;20525;-71
2022/04/22 04:48:15;;;;;;;17.23;11.23;;;3.50;99.90;;;;;;5011629;28;20270;-71
2022/04/22 04:50:41;;;;;;;16.43;12.10;;;3.40;99.90;;;;;;5029199;28;20423;-71
2022/04/22 04:53:07;;;;;;;16.67;12.23;;;3.20;99.90;;;;;;5029178;28;20500;-71
2022/04/22 04:55:33;;;;;;;15.53;11.77;;;3.20;99.90;;;;;;5028913;28;20447;-72
2022/04/22 04:57:58;;;;;;;15.97;11.50;;;3.20;99.90;;;;;;5028767;28;20195;-71
2022/04/22 05:00:24;;;;;;;18.23;12.43;;;3.40;99.90;;;;;;5011071;28;20423;-72
2022/04/22 05:02:50;;;;;;;15.73;12.30;;;3.60;99.90;;;;;;5028916;28;20186;-72
2022/04/22 05:05:16;;;;;;;14.73;11.20;;;3.70;99.90;;;;;;5028781;28;20266;-71
2022/04/22 05:07:55;;;;;;;17.02;12.00;;;3.80;99.90;;;;;;5028110;28;20208;-71
2022/04/22 05:10:21;;;;;;;17.90;12.40;;;3.90;99.90;;;;;;5028742;28;20215;-71
2022/04/22 05:12:50;;;;;;;18.90;13.63;;;4.00;99.90;;;;;;5028746;28;20831;-72
2022/04/22 05:15:17;;;;;;;17.97;11.43;;;4.10;99.90;;;;;;5028629;28;20944;-71
2022/04/22 05:17:44;;;;;;;15.40;11.57;;;4.20;99.90;;;;;;5028353;28;20474;-72
2022/04/22 05:20:12;;;;;;;14.67;11.23;;;4.30;99.90;;;;;;5028437;28;20412;-72
2022/04/22 05:22:38;;;;;;;15.40;12.27;;;4.40;99.90;;;;;;5028342;28;20445;-71
2022/04/22 05:25:09;;;;;;;15.30;12.50;;;4.50;99.90;;;;;;5010855;28;20974;-72
2022/04/22 05:27:35;;;;;;;17.40;12.40;;;4.60;99.90;;;;;;5028574;28;20596;-72
2022/04/22 05:32:48;;;;;;;16.90;13.80;;;5.00;99.90;;;;;;5028620;28;20846;-72
2022/04/22 05:35:19;;;;;;;17.90;15.50;;;5.20;99.90;;;;;;5028401;28;20414;-72
2022/04/22 05:37:59;;;;;;;17.63;14.73;;;5.40;99.90;;;;;;5028282;28;20450;-71
2022/04/22 05:40:27;;;;;;;16.03;13.27;;;5.60;99.90;;;;;;5028267;28;20415;-72
2022/04/22 05:42:54;;;;;;;14.00;12.10;;;5.80;99.90;;;;;;5028170;28;20424;-72
2022/04/22 05:45:21;;;;;;;17.47;14.13;;;5.90;99.90;;;;;;5028210;28;20916;-72
2022/04/22 05:47:47;;;;;;;15.23;12.90;;;6.10;99.90;;;;;;5028313;28;20451;-71
2022/04/22 05:50:14;;;;;;;14.10;12.40;;;6.20;99.90;;;;;;5027823;28;20917;-71
2022/04/22 05:52:40;;;;;;;17.20;12.40;;;6.50;99.90;;;;;;5028082;28;20565;-71
2022/04/22 05:55:09;;;;;;;18.77;13.37;;;6.60;99.90;;;;;;5028561;28;20431;-71
2022/04/22 05:57:36;;;;;;;14.57;12.20;;;6.70;99.90;;;;;;5009739;28;20819;-72
2022/04/22 06:00:09;;;;;;;18.37;12.33;;;7.00;99.90;;;;;;5027511;28;20424;-71
2022/04/22 06:02:35;;;;;;;16.87;12.70;;;7.20;99.90;;;;;;5027630;28;20458;-71
2022/04/22 06:05:01;;;;;;;15.23;12.60;;;7.30;99.90;;;;;;5009830;28;20455;-71
2022/04/22 06:07:26;;;;;;;18.50;13.27;;;7.50;99.90;;;;;;5027474;28;20496;-71
2022/04/22 06:12:36;;;;;;;16.93;12.87;;;7.80;99.90;;;;;;5027464;28;20279;-71
2022/04/22 06:15:04;;;;;;;22.30;13.90;;;8.10;99.90;;;;;;5027567;28;20834;-71
2022/04/22 06:17:30;;;;;;;19.53;13.30;;;8.20;99.90;;;;;;5027371;28;20264;-71
2022/04/22 06:19:56;;;;;;;20.80;13.87;;;8.40;99.90;;;;;;5026515;28;20992;-71
2022/04/22 06:22:23;;;;;;;19.10;13.20;;;8.60;99.90;;;;;;5027273;28;20511;-71
2022/04/22 06:24:49;;;;;;;21.00;13.90;;;8.60;99.90;;;;;;5027116;28;20439;-71
2022/04/22 06:27:34;;;;;;;18.97;15.13;;;8.70;99.90;;;;;;5027154;28;20431;-71
2022/04/22 06:30:04;;;;;;;17.63;12.90;;;9.00;99.90;;;;;;5027205;28;20422;-71
2022/04/22 06:32:30;;;;;;;18.63;13.63;;;9.10;99.90;;;;;;5027179;28;20411;-71
2022/04/22 06:34:56;;;;;;;17.97;14.37;;;9.30;99.90;;;;;;5009547;28;21142;-71
2022/04/22 06:37:22;;;;;;;19.40;15.43;;;9.50;99.90;;;;;;5009152;28;20653;-71
2022/04/22 06:48:01;;;;;;;19.93;14.63;;;10.10;99.90;;;;;;5027228;28;21316;-71
2022/04/22 06:50:27;;;;;;;23.57;15.03;;;10.20;99.90;;;;;;5027628;28;20429;-71
2022/04/22 06:52:53;;;;;;;19.97;15.20;;;10.30;99.90;;;;;;5009958;28;20215;-70
2022/04/22 06:55:19;;;;;;;21.13;16.40;;;10.60;99.90;;;;;;5027709;28;20467;-71
2022/04/22 06:57:49;;;;;;;26.27;16.23;;;10.80;99.90;;;;;;5009696;28;20210;-71
2022/04/22 07:00:17;;;;;;;25.50;16.07;;;10.90;99.90;;;;;;5027716;28;20419;-71
2022/04/22 07:02:43;;;;;;;20.50;15.30;;;11.00;99.90;;;;;;5027824;28;20429;-71
2022/04/22 07:05:09;;;;;;;28.23;17.37;;;11.20;99.90;;;;;;5027555;28;20407;-71
2022/04/22 07:07:35;;;;;;;21.90;17.30;;;11.30;99.90;;;;;;5009581;28;20460;-71
2022/04/22 07:10:01;;;;;;;23.13;17.67;;;11.30;99.90;;;;;;5027878;28;20427;-71
2022/04/22 07:12:27;;;;;;;24.50;17.23;;;11.30;99.90;;;;;;5027241;28;21320;-71
2022/04/22 07:15:03;;;;;;;22.17;17.00;;;11.40;99.90;;;;;;5027162;28;20420;-71
2022/04/22 07:17:40;;;;;;;24.43;17.90;;;11.40;99.90;;;;;;5027213;28;20439;-71
2022/04/22 07:20:11;;;;;;;22.13;16.70;;;11.60;99.90;;;;;;5027187;28;21209;-71
2022/04/22 07:22:38;;;;;;;22.50;17.47;;;11.70;99.90;;;;;;5027006;28;20506;-71
2022/04/22 07:25:06;;;;;;;24.73;17.73;;;11.70;99.90;;;;;;5026451;28;20461;-71
2022/04/22 07:27:34;;;;;;;22.07;16.93;;;11.80;99.90;;;;;;5026653;28;20453;-71
2022/04/22 07:30:00;;;;;;;26.87;18.50;;;11.80;99.90;;;;;;5027415;28;20514;-71
2022/04/22 07:32:27;;;;;;;22.93;18.80;;;11.90;99.90;;;;;;5014811;28;20483;-71
2022/04/22 07:34:56;;;;;;;23.27;18.10;;;12.00;99.90;;;;;;5022676;28;20435;-69
2022/04/22 07:37:23;;;;;;;27.10;17.83;;;12.00;99.90;;;;;;5030276;28;20528;-69
2022/04/22 07:39:49;;;;;;;22.73;17.80;;;12.20;99.90;;;;;;5030503;28;20448;-71
2022/04/22 07:42:18;;;;;;;25.47;17.63;;;12.30;99.90;;;;;;5030358;28;20423;-70
2022/04/22 07:47:38;;;;;;;25.10;19.33;;;12.60;99.90;;;;;;5030357;28;20472;-71
2022/04/22 07:50:05;;;;;;;24.27;18.70;;;12.60;99.90;;;;;;5030534;28;20422;-71
2022/04/22 07:52:33;;;;;;;24.77;18.07;;;12.70;99.90;;;;;;5030182;28;20431;-71
2022/04/22 07:54:59;;;;;;;22.30;18.37;;;12.90;99.90;;;;;;5030114;28;20436;-71
2022/04/22 07:57:25;;;;;;;25.77;18.60;;;13.10;99.90;;;;;;5012881;28;20442;-71
2022/04/22 07:59:50;;;;;;;21.40;17.90;;;13.30;99.90;;;;;;5029907;28;20219;-71
2022/04/22 08:02:16;;;;;;;21.57;17.30;;;13.40;99.90;;;;;;5030486;28;20637;-71
2022/04/22 08:04:43;;;;;;;22.47;18.33;;;13.40;99.20;;;;;;5030292;28;20712;-71
2022/04/22 08:07:09;;;;;;;25.10;19.07;;;13.40;98.90;;;;;;5029774;28;20453;-71
2022/04/22 08:09:35;;;;;;;21.50;16.90;;;13.50;98.90;;;;;;5011792;28;20829;-71
2022/04/22 08:12:01;;;;;;;22.60;17.90;;;13.60;98.90;;;;;;5029873;28;20426;-70
2022/04/22 08:14:27;;;;;;;26.33;18.13;;;13.80;98.40;;;;;;5029852;28;20941;-70
2022/04/22 08:16:56;;;;;;;21.73;17.40;;;13.90;98.60;;;;;;5013006;28;20472;-70
2022/04/22 08:19:22;;;;;;;24.57;17.70;;;14.00;98.40;;;;;;5032513;28;20708;-70
2022/04/22 08:21:47;;;;;;;22.77;17.67;;;14.20;98.10;;;;;;5014852;28;20438;-71
2022/04/22 08:24:13;;;;;;;26.97;18.50;;;14.30;97.90;;;;;;5014429;28;20192;-71
2022/04/22 08:26:39;;;;;;;22.40;17.70;;;14.40;97.70;;;;;;5031882;28;20574;-71
2022/04/22 08:29:05;;;;;;;23.77;17.83;;;14.60;97.40;;;;;;5031416;28;20212;-71
2022/04/22 08:31:31;;;;;;;25.40;18.43;;;14.70;97.80;;;;;;5031434;28;20470;-72
2022/04/22 08:33:57;;;;;;;23.77;18.53;;;14.90;96.90;;;;;;5030861;28;20215;-71
2022/04/22 08:36:32;;;;;;;25.70;17.33;;;14.90;96.30;;;;;;4995574;28;20951;-72
2022/04/22 08:38:58;;;;;;;25.73;18.50;;;15.10;96.20;;;;;;5029964;28;21072;-73
2022/04/22 08:41:24;;;;;;;21.53;17.83;;;15.10;95.90;;;;;;5029235;28;20428;-72
2022/04/22 08:43:51;;;;;;;25.97;18.60;;;15.10;96.10;;;;;;5030299;28;20972;-72
2022/04/22 08:51:47;;;;;;;21.77;17.47;;;15.70;96.00;;;;;;5030463;28;20529;-72
2022/04/22 08:54:14;;;;;;;22.40;17.33;;;16.10;94.80;;;;;;5030221;28;20846;-71
2022/04/22 08:56:42;;;;;;;21.27;17.13;;;16.30;95.10;;;;;;5030151;28;20486;-71
2022/04/22 08:59:09;;;;;;;23.13;17.00;;;16.40;94.30;;;;;;5030107;28;20787;-71
2022/04/22 09:01:37;;;;;;;20.90;16.80;;;16.70;94.10;;;;;;5029856;28;20427;-72
2022/04/22 09:04:04;;;;;;;23.87;18.93;;;17.00;93.40;;;;;;5012183;28;20906;-72
2022/04/22 09:06:31;;;;;;;19.87;16.93;;;17.10;91.60;;;;;;5029399;28;20417;-72
2022/04/22 09:08:58;;;;;;;18.83;15.53;;;17.50;91.90;;;;;;5029262;28;20968;-71
2022/04/22 09:11:24;;;;;;;26.67;17.90;;;17.70;91.90;;;;;;5029360;28;20963;-72
2022/04/22 09:13:50;;;;;;;21.00;17.60;;;17.70;91.30;;;;;;5011289;28;20992;-72
2022/04/22 09:16:22;;;;;;;26.03;17.10;;;17.80;91.50;;;;;;5029184;28;20416;-72
2022/04/22 09:18:58;;;;;;;17.60;15.73;;;18.00;90.90;;;;;;5029196;28;20609;-72
2022/04/22 09:21:25;;;;;;;21.27;16.50;;;18.40;90.60;;;;;;5011243;28;20439;-72
2022/04/22 09:23:50;;;;;;;19.30;17.33;;;18.70;86.30;;;;;;5028844;28;20913;-72
2022/04/22 09:26:22;;;;;;;19.20;16.20;;;18.80;85.40;;;;;;5028894;28;20510;-72
2022/04/22 09:28:57;;;;;;;18.53;16.37;;;19.30;83.70;;;;;;5029576;28;20803;-72
2022/04/22 09:31:25;;;;;;;17.90;15.97;;;19.70;85.70;;;;;;5029588;28;21289;-73
2022/04/22 09:33:51;;;;;;;20.87;16.40;;;19.90;83.00;;;;;;5028833;28;20454;-74
2022/04/22 09:45:03;;;;;;;18.93;16.73;;;20.30;75.90;;;;;;5028868;28;20421;-74
2022/04/22 09:47:30;;;;;;;20.43;15.70;;;20.40;76.60;;;;;;5010772;28;20443;-74
2022/04/22 09:49:59;;;;;;;19.00;15.17;;;20.60;75.80;;;;;;5010726;28;20565;-73
2022/04/22 09:52:30;;;;;;;23.10;16.20;;;21.10;79.00;;;;;;5028743;28;20428;-74
2022/04/22 09:55:03;;;;;;;17.77;15.53;;;21.30;72.30;;;;;;5028519;28;20533;-74
2022/04/22 09:57:48;;;;;;;16.83;15.03;;;21.40;71.90;;;;;;5011121;28;20447;-74
2022/04/22 10:00:16;;;;;;;18.10;14.80;;;21.60;72.40;;;;;;5013198;28;20437;-73
2022/04/22 10:02:43;;;;;;;15.37;13.70;;;21.40;72.20;;;;;;5028286;28;20600;-74
2022/04/22 10:05:11;;;;;;;15.80;14.10;;;21.20;71.00;;;;;;5028414;28;20427;-74
2022/04/22 10:07:36;;;;;;;17.50;15.27;;;21.00;70.10;;;;;;5027931;28;20437;-74
2022/04/22 10:10:04;;;;;;;18.23;15.27;;;20.90;71.90;;;;;;5027835;28;20929;-72
2022/04/22 10:12:34;;;;;;;17.87;15.30;;;20.80;75.70;;;;;;5009886;28;20721;-73
2022/04/22 10:15:01;;;;;;;18.90;16.63;;;21.00;70.80;;;;;;5028186;28;20855;-72
2022/04/22 10:17:27;;;;;;;28.80;17.80;;;21.40;69.10;;;;;;5027782;28;20447;-72
2022/04/22 10:19:53;;;;;;;16.37;14.67;;;21.20;69.80;;;;;;5027795;28;20484;-72
2022/04/22 10:22:19;;;;;;;17.20;15.40;;;20.80;69.40;;;;;;5009581;28;20206;-72
2022/04/22 10:24:46;;;;;;;17.23;15.40;;;20.60;71.80;;;;;;5009977;28;21125;-72
2022/04/22 10:27:14;;;;;;;16.60;14.80;;;20.80;72.60;;;;;;5010209;28;21286;-72
2022/04/22 10:29:42;;;;;;;18.73;15.83;;;20.90;73.40;;;;;;5010364;28;20806;-71
2022/04/22 10:32:10;;;;;;;18.20;15.87;;;21.10;74.20;;;;;;5027545;28;20908;-73
2022/04/22 10:34:44;;;;;;;17.13;14.53;;;21.30;70.60;;;;;;5008808;28;20470;-73
2022/04/22 10:37:28;;;;;;;15.80;13.87;;;21.30;69.70;;;;;;5009780;28;20450;-72
2022/04/22 10:39:59;;;;;;;20.27;14.10;;;21.20;67.40;;;;;;5010217;28;20418;-73
2022/04/22 10:42:38;;;;;;;15.20;13.67;;;21.50;67.90;;;;;;5010137;28;20495;-74
2022/04/22 10:47:55;;;;;;;17.83;13.30;;;22.10;67.90;;;;;;5027436;28;20487;-75
2022/04/22 10:50:31;;;;;;;15.10;12.50;;;22.20;68.90;;;;;;5027777;28;21272;-74
2022/04/22 10:53:06;;;;;;;13.30;12.00;;;22.50;67.80;;;;;;5027515;28;20450;-75
2022/04/22 10:55:36;;;;;;;15.40;13.70;;;22.80;66.70;;;;;;5027581;28;20425;-74
2022/04/22 10:58:14;;;;;;;14.63;12.70;;;22.90;66.90;;;;;;5027538;28;20442;-74
2022/04/22 11:00:46;;;;;;;14.77;12.63;;;22.90;66.60;;;;;;5009762;28;20457;-74
2022/04/22 11:03:13;;;;;;;20.73;13.27;;;22.90;66.20;;;;;;5027504;28;20415;-73
2022/04/22 11:05:50;;;;;;;16.23;14.53;;;23.30;66.40;;;;;;5029212;28;20420;-73
2022/04/22 11:08:38;;;;;;;14.53;13.13;;;23.00;63.80;;;;;;5031628;28;20439;-75
2022/04/22 11:11:19;;;;;;;16.23;13.20;;;23.30;65.80;;;;;;5031120;28;20429;-73
2022/04/22 11:13:46;;;;;;;15.77;13.57;;;23.40;63.10;;;;;;5031083;28;20511;-77
2022/04/22 11:16:15;;;;;;;15.80;14.20;;;23.40;60.10;;;;;;5030700;28;20448;-75
2022/04/22 11:18:43;;;;;;;13.33;12.07;;;23.40;61.80;;;;;;5012853;28;21121;-74
2022/04/22 11:21:15;;;;;;;17.00;13.07;;;23.30;60.00;;;;;;5012600;28;20533;-76
2022/04/22 11:23:46;;;;;;;14.87;13.37;;;23.30;60.50;;;;;;5030742;28;20423;-76
2022/04/22 11:26:17;;;;;;;15.90;13.33;;;23.30;60.90;;;;;;5013119;28;20887;-76
2022/04/22 11:28:45;;;;;;;13.50;12.10;;;23.30;60.00;;;;;;5030353;28;20436;-76
2022/04/22 11:31:12;;;;;;;13.00;11.33;;;23.50;62.60;;;;;;5030585;28;20798;-73
2022/04/22 11:33:40;;;;;;;15.27;13.00;;;23.70;60.20;;;;;;5030492;28;20475;-74
2022/04/22 11:36:07;;;;;;;13.57;12.27;;;23.80;59.40;;;;;;5030486;28;20412;-74
2022/04/22 11:38:33;;;;;;;12.17;10.83;;;23.70;58.90;;;;;;5030292;28;20440;-74
2022/04/22 11:40:58;;;;;;;15.73;12.60;;;23.80;61.50;;;;;;5030286;28;20420;-74
2022/04/22 11:43:28;;;;;;;14.33;12.60;;;23.90;59.80;;;;;;5030261;28;20798;-74
2022/04/22 11:45:53;;;;;;;13.93;12.47;;;23.90;59.40;;;;;;5030221;28;20986;-72
2022/04/22 11:48:22;;;;;;;16.43;13.03;;;24.00;58.40;;;;;;5030177;28;20443;-74
2022/04/22 11:50:47;;;;;;;13.60;12.20;;;23.60;57.70;;;;;;5030206;28;20677;-72
2022/04/22 11:53:19;;;;;;;14.43;12.73;;;23.80;61.20;;;;;;5012100;28;20468;-72
2022/04/22 11:55:46;;;;;;;15.07;12.30;;;23.90;58.60;;;;;;5030231;28;20190;-72
2022/04/22 11:58:14;;;;;;;11.87;10.67;;;23.80;59.50;;;;;;5011609;28;20449;-72
2022/04/22 12:06:14;;;;;;;12.70;11.43;;;24.10;58.70;;;;;;5030159;28;20466;-70
2022/04/22 12:08:56;;;;;;;13.80;12.57;;;24.00;59.40;;;;;;5029923;28;20447;-71
2022/04/22 12:11:23;;;;;;;13.80;12.33;;;23.80;59.90;;;;;;5030903;28;20425;-71
2022/04/22 12:13:50;;;;;;;13.43;12.10;;;23.90;61.50;;;;;;5030374;28;20478;-73
2022/04/22 12:16:27;;;;;;;22.40;11.27;;;23.90;60.00;;;;;;5012152;28;20423;-71
2022/04/22 12:18:54;;;;;;;14.07;11.90;;;24.10;58.80;;;;;;5029480;28;20432;-71
2022/04/22 12:21:21;;;;;;;13.47;12.07;;;24.30;59.20;;;;;;5030093;28;20421;-74
2022/04/22 12:23:51;;;;;;;12.40;11.10;;;24.40;58.60;;;;;;5030149;28;20512;-75
2022/04/22 12:26:22;;;;;;;17.83;13.30;;;24.60;58.90;;;;;;5012189;28;20452;-73
2022/04/22 12:29:10;;;;;;;14.00;12.60;;;24.40;58.00;;;;;;5030318;28;20978;-76
2022/04/22 12:31:49;;;;;;;16.63;11.70;;;24.10;57.10;;;;;;5029982;28;20414;-76
2022/04/22 12:34:30;;;;;;;34.70;14.80;;;24.20;58.70;;;;;;5030005;28;20511;-74
2022/04/22 12:36:57;;;;;;;12.43;11.20;;;24.30;60.20;;;;;;5029624;28;20445;-74
2022/04/22 12:39:35;;;;;;;16.70;11.40;;;24.40;57.70;;;;;;5011735;28;21264;-74
2022/04/22 12:42:01;;;;;;;59.27;17.60;;;24.50;58.20;;;;;;5030184;28;20418;-74
2022/04/22 12:44:26;;;;;;;24.60;13.90;;;24.60;56.80;;;;;;5029782;28;20829;-74
2022/04/22 12:52:36;;;;;;;33.43;13.70;;;24.30;57.70;;;;;;5029793;28;20998;-73
2022/04/22 12:55:11;;;;;;;50.50;16.70;;;24.40;57.50;;;;;;5029739;28;20474;-74
2022/04/22 12:57:37;;;;;;;14.50;10.83;;;24.20;57.30;;;;;;5011654;28;20483;-74
2022/04/22 13:00:13;;;;;;;10.83;9.73;;;24.10;57.60;;;;;;5029959;28;20425;-74
2022/04/22 13:02:39;;;;;;;15.23;11.43;;;24.20;58.20;;;;;;5031905;28;20420;-75
2022/04/22 13:05:06;;;;;;;15.20;9.20;;;24.10;56.50;;;;;;5030350;28;20792;-74
2022/04/22 13:07:40;;;;;;;12.80;10.43;;;24.00;57.50;;;;;;5039290;28;20479;-74
2022/04/22 13:10:07;;;;;;;13.07;11.63;;;24.00;56.40;;;;;;5050954;28;20417;-73
2022/04/22 13:12:34;;;;;;;15.30;10.90;;;23.80;55.50;;;;;;5050067;28;20496;-73
2022/04/22 13:15:00;;;;;;;11.83;10.50;;;23.80;56.00;;;;;;5049161;28;20420;-74
2022/04/22 13:17:26;;;;;;;11.40;10.20;;;24.00;56.50;;;;;;5045534;28;20476;-75
2022/04/22 13:19:52;;;;;;;11.90;9.20;;;24.00;56.60;;;;;;5030071;28;20507;-75
2022/04/22 13:22:18;;;;;;;11.37;10.27;;;24.20;56.60;;;;;;5029884;28;20561;-74
2022/04/22 13:24:44;;;;;;;12.17;11.00;;;24.30;56.20;;;;;;5011549;28;20464;-73
2022/04/22 13:27:11;;;;;;;12.27;10.90;;;24.10;54.80;;;;;;5029726;28;20213;-74
2022/04/22 13:29:37;;;;;;;13.40;10.63;;;24.00;55.70;;;;;;5011164;28;20507;-74
2022/04/22 13:32:03;;;;;;;12.07;10.83;;;23.80;55.90;;;;;;5029405;28;20524;-73
2022/04/22 13:34:29;;;;;;;11.67;10.50;;;23.50;55.20;;;;;;5029547;28;20736;-73
2022/04/22 13:36:54;;;;;;;15.33;9.90;;;23.50;55.70;;;;;;5029659;28;20556;-73
2022/04/22 13:39:20;;;;;;;13.03;11.57;;;23.50;55.70;;;;;;5029482;28;20190;-71
2022/04/22 13:41:46;;;;;;;17.73;10.90;;;23.60;56.10;;;;;;5029680;28;20285;-73
2022/04/22 13:44:11;;;;;;;14.90;10.10;;;23.50;54.90;;;;;;5029482;28;20527;-73
2022/04/22 13:52:25;;;;;;;10.80;9.63;;;23.20;57.10;;;;;;5029664;28;20474;-73